createdAt,value
2018-12-17T00:01:38.915Z,-3.80
2018-12-17T00:04:06.605Z,-3.80
2018-12-17T00:06:34.106Z,-4.00
2018-12-17T00:09:01.543Z,-4.00
2018-12-17T00:11:29.250Z,-4.10
2018-12-17T00:13:56.686Z,-4.10
2018-12-17T00:16:24.178Z,-4.10
2018-12-17T00:18:51.606Z,-4.10
2018-12-17T00:21:19.085Z,-4.00
2018-12-17T00:23:46.522Z,-3.80
2018-12-17T00:26:13.993Z,-3.90
2018-12-17T00:28:41.470Z,-4.00
2018-12-17T00:31:08.890Z,-3.90
2018-12-17T00:33:36.477Z,-3.90
2018-12-17T00:36:04.042Z,-3.80
2018-12-17T00:38:31.506Z,-3.80
2018-12-17T00:40:58.941Z,-3.90
2018-12-17T00:43:26.774Z,-3.90
2018-12-17T00:45:54.342Z,-3.90
2018-12-17T00:48:22.203Z,-3.90
2018-12-17T00:50:49.725Z,-4.00
2018-12-17T00:53:17.195Z,-4.10
2018-12-17T00:55:44.679Z,-4.20
2018-12-17T00:58:15.107Z,-4.30
2018-12-17T01:00:41.683Z,-4.30
2018-12-17T01:03:09.250Z,-4.40
2018-12-17T01:05:36.740Z,-4.50
2018-12-17T01:08:04.182Z,-4.60
2018-12-17T01:10:31.641Z,-4.70
2018-12-17T01:12:59.298Z,-4.80
2018-12-17T01:15:26.891Z,-5.00
2018-12-17T01:17:54.362Z,-5.10
2018-12-17T01:20:21.843Z,-5.10
2018-12-17T01:22:49.292Z,-5.20
2018-12-17T01:25:16.734Z,-5.30
2018-12-17T01:27:44.223Z,-5.30
2018-12-17T01:30:11.766Z,-5.40
2018-12-17T01:32:39.378Z,-5.50
2018-12-17T01:35:06.963Z,-5.50
2018-12-17T01:37:34.491Z,-5.60
2018-12-17T01:40:02.088Z,-5.60
2018-12-17T01:42:29.560Z,-5.70
2018-12-17T01:44:57.042Z,-5.70
2018-12-17T01:47:24.482Z,-5.70
2018-12-17T01:49:51.942Z,-5.70
2018-12-17T01:52:19.366Z,-5.70
2018-12-17T01:54:46.818Z,-5.60
2018-12-17T01:57:14.407Z,-5.60
2018-12-17T01:59:42.215Z,-5.60
2018-12-17T02:02:09.792Z,-5.50
2018-12-17T02:04:37.254Z,-5.50
2018-12-17T02:07:04.869Z,-5.50
2018-12-17T02:09:32.374Z,-5.50
2018-12-17T02:11:59.944Z,-5.50
2018-12-17T02:14:27.401Z,-5.40
2018-12-17T02:16:54.872Z,-5.30
2018-12-17T02:19:22.350Z,-5.20
2018-12-17T02:21:49.811Z,-5.10
2018-12-17T02:24:17.296Z,-4.90
2018-12-17T02:26:44.757Z,-4.80
2018-12-17T02:29:12.211Z,-4.90
2018-12-17T02:31:39.716Z,-4.90
2018-12-17T02:34:07.309Z,-4.90
2018-12-17T02:36:34.897Z,-4.70
2018-12-17T02:39:03.501Z,-4.60
2018-12-17T02:41:30.967Z,-4.60
2018-12-17T02:43:58.759Z,-4.50
2018-12-17T02:46:26.194Z,-4.30
2018-12-17T02:48:53.663Z,-4.10
2018-12-17T02:51:21.139Z,-4.00
2018-12-17T02:53:48.570Z,-3.90
2018-12-17T02:56:16.159Z,-3.90
2018-12-17T02:58:44.102Z,-3.80
2018-12-17T03:01:11.870Z,-3.90
2018-12-17T03:03:39.328Z,-3.80
2018-12-17T03:06:06.913Z,-3.80
2018-12-17T03:08:34.374Z,-3.60
2018-12-17T03:11:02.065Z,-3.60
2018-12-17T03:13:29.532Z,-3.60
2018-12-17T03:15:57.222Z,-3.60
2018-12-17T03:18:24.697Z,-3.50
2018-12-17T03:20:52.258Z,-3.40
2018-12-17T03:23:19.727Z,-3.40
2018-12-17T03:25:47.143Z,-3.30
2018-12-17T03:28:21.714Z,-3.30
2018-12-17T03:30:49.185Z,-3.60
2018-12-17T03:35:54.394Z,-3.60
2018-12-17T03:38:21.838Z,-3.80
2018-12-17T03:40:49.319Z,-3.80
2018-12-17T03:43:16.927Z,-3.80
2018-12-17T03:45:44.386Z,-3.80
2018-12-17T03:48:11.816Z,-3.60
2018-12-17T03:50:39.286Z,-3.60
2018-12-17T03:53:06.743Z,-3.40
2018-12-17T03:55:34.210Z,-3.40
2018-12-17T03:58:01.702Z,-3.30
2018-12-17T04:00:29.147Z,-3.10
2018-12-17T04:02:56.650Z,-3.20
2018-12-17T04:05:24.118Z,-3.40
2018-12-17T04:07:51.567Z,-3.20
2018-12-17T04:10:19.053Z,-3.10
2018-12-17T04:12:46.706Z,-3.20
2018-12-17T04:15:14.203Z,-3.10
2018-12-17T04:17:41.675Z,-2.80
2018-12-17T04:20:09.265Z,-2.60
2018-12-17T04:22:36.739Z,-2.50
2018-12-17T04:25:05.061Z,-2.50
2018-12-17T04:27:32.536Z,-2.80
2018-12-17T04:30:00.169Z,-2.70
2018-12-17T04:32:27.792Z,-2.60
2018-12-17T04:34:55.243Z,-2.50
2018-12-17T04:37:22.686Z,-2.50
2018-12-17T04:39:50.171Z,-2.50
2018-12-17T04:42:17.718Z,-2.60
2018-12-17T04:44:45.198Z,-2.70
2018-12-17T04:47:12.655Z,-2.60
2018-12-17T04:49:40.805Z,-2.60
2018-12-17T04:52:08.316Z,-2.60
2018-12-17T04:54:35.895Z,-2.70
2018-12-17T04:57:03.447Z,-2.80
2018-12-17T04:59:31.134Z,-2.90
2018-12-17T05:01:58.579Z,-3.00
2018-12-17T05:04:26.117Z,-3.00
2018-12-17T05:06:53.607Z,-2.90
2018-12-17T05:09:21.412Z,-3.00
2018-12-17T05:11:48.861Z,-3.10
2018-12-17T05:14:16.439Z,-2.90
2018-12-17T05:16:43.986Z,-2.80
2018-12-17T05:19:11.499Z,-2.70
2018-12-17T05:21:38.960Z,-2.80
2018-12-17T05:24:06.402Z,-2.90
2018-12-17T05:26:34.034Z,-2.90
2018-12-17T05:29:01.805Z,-2.90
2018-12-17T05:31:29.290Z,-2.80
2018-12-17T05:33:56.963Z,-2.90
2018-12-17T05:36:24.396Z,-3.00
2018-12-17T05:38:51.886Z,-3.00
2018-12-17T05:41:19.362Z,-3.00
2018-12-17T05:43:46.834Z,-3.00
2018-12-17T05:46:14.276Z,-2.90
2018-12-17T05:48:41.773Z,-2.90
2018-12-17T05:51:09.271Z,-2.70
2018-12-17T05:53:36.799Z,-2.60
2018-12-17T05:56:04.247Z,-2.70
2018-12-17T05:58:31.816Z,-2.60
2018-12-17T06:00:59.397Z,-2.50
2018-12-17T06:03:26.951Z,-2.40
2018-12-17T06:05:54.390Z,-2.30
2018-12-17T06:08:21.871Z,-2.40
2018-12-17T06:10:49.390Z,-2.70
2018-12-17T06:13:16.833Z,-2.80
2018-12-17T06:15:44.423Z,-2.90
2018-12-17T06:18:11.868Z,-2.80
2018-12-17T06:20:39.309Z,-2.70
2018-12-17T06:23:06.901Z,-2.80
2018-12-17T06:25:34.359Z,-2.80
2018-12-17T06:28:01.825Z,-2.80
2018-12-17T06:30:29.338Z,-2.70
2018-12-17T06:32:56.884Z,-2.60
2018-12-17T06:35:24.368Z,-2.70
2018-12-17T06:37:51.847Z,-2.70
2018-12-17T06:40:19.314Z,-2.80
2018-12-17T06:42:46.801Z,-2.80
2018-12-17T06:45:14.275Z,-2.90
2018-12-17T06:47:41.832Z,-2.80
2018-12-17T06:50:09.443Z,-2.70
2018-12-17T06:52:36.884Z,-2.70
2018-12-17T06:55:05.836Z,-2.70
2018-12-17T06:57:33.625Z,-2.60
2018-12-17T07:00:01.072Z,-2.60
2018-12-17T07:02:28.546Z,-2.50
2018-12-17T07:04:56.004Z,-2.30
2018-12-17T07:07:23.470Z,-2.10
2018-12-17T07:09:50.929Z,-2.10
2018-12-17T07:12:18.412Z,-2.10
2018-12-17T07:14:45.901Z,-2.20
2018-12-17T07:17:13.321Z,-2.10
2018-12-17T07:19:40.794Z,-2.00
2018-12-17T07:22:08.269Z,-2.20
2018-12-17T07:24:35.738Z,-2.30
2018-12-17T07:27:03.291Z,-2.40
2018-12-17T07:29:30.767Z,-2.30
2018-12-17T07:31:58.199Z,-2.40
2018-12-17T07:34:26.274Z,-2.50
2018-12-17T07:36:54.064Z,-2.60
2018-12-17T07:39:21.870Z,-2.40
2018-12-17T07:41:49.443Z,-2.10
2018-12-17T07:44:16.894Z,-2.20
2018-12-17T07:46:44.510Z,-2.30
2018-12-17T07:49:12.011Z,-2.20
2018-12-17T07:51:39.473Z,-2.30
2018-12-17T07:54:06.972Z,-2.20
2018-12-17T07:56:34.446Z,-2.20
2018-12-17T07:59:02.028Z,-2.20
2018-12-17T08:01:29.496Z,-2.10
2018-12-17T08:03:57.099Z,-2.10
2018-12-17T08:06:24.674Z,-2.10
2018-12-17T08:08:52.129Z,-1.90
2018-12-17T08:11:19.590Z,-1.90
2018-12-17T08:13:47.099Z,-2.00
2018-12-17T08:16:14.551Z,-2.20
2018-12-17T08:18:41.994Z,-2.30
2018-12-17T08:21:09.469Z,-2.30
2018-12-17T08:23:36.916Z,-2.20
2018-12-17T08:26:04.423Z,-2.20
2018-12-17T08:28:31.862Z,-2.30
2018-12-17T08:30:59.342Z,-2.40
2018-12-17T08:33:26.799Z,-2.30
2018-12-17T08:35:54.231Z,-2.20
2018-12-17T08:38:21.726Z,-2.30
2018-12-17T08:40:49.213Z,-2.30
2018-12-17T08:43:16.678Z,-2.30
2018-12-17T08:45:44.215Z,-2.40
2018-12-17T08:48:11.777Z,-2.40
2018-12-17T08:50:39.297Z,-2.30
2018-12-17T08:53:06.734Z,-2.30
2018-12-17T08:55:34.240Z,-2.10
2018-12-17T08:58:01.723Z,-1.80
2018-12-17T09:00:29.292Z,-1.60
2018-12-17T09:02:57.047Z,-1.50
2018-12-17T09:05:24.549Z,-1.60
2018-12-17T09:07:51.998Z,-1.80
2018-12-17T09:10:19.474Z,-2.00
2018-12-17T09:12:46.903Z,-2.00
2018-12-17T09:15:14.638Z,-1.90
2018-12-17T09:17:42.072Z,-1.90
2018-12-17T09:20:09.663Z,-2.00
2018-12-17T09:22:37.125Z,-2.10
2018-12-17T09:25:05.625Z,-2.00
2018-12-17T09:27:33.102Z,-1.90
2018-12-17T09:30:00.607Z,-1.80
2018-12-17T09:32:28.170Z,-1.90
2018-12-17T09:34:55.624Z,-2.00
2018-12-17T09:37:23.319Z,-2.00
2018-12-17T09:39:50.800Z,-2.00
2018-12-17T09:42:18.280Z,-1.60
2018-12-17T09:44:45.731Z,-1.40
2018-12-17T09:47:13.347Z,-1.30
2018-12-17T09:49:40.809Z,-1.30
2018-12-17T09:52:08.329Z,-1.30
2018-12-17T09:54:35.775Z,-1.30
2018-12-17T09:57:03.386Z,-1.20
2018-12-17T09:59:30.835Z,-1.10
2018-12-17T10:01:58.302Z,-1.10
2018-12-17T10:04:25.785Z,-1.30
2018-12-17T10:06:53.262Z,-1.50
2018-12-17T10:09:20.750Z,-1.40
2018-12-17T10:11:48.198Z,-1.50
2018-12-17T10:14:15.658Z,-1.70
2018-12-17T10:16:43.199Z,-1.80
2018-12-17T10:19:10.674Z,-1.80
2018-12-17T10:21:38.315Z,-1.80
2018-12-17T10:24:06.122Z,-1.80
2018-12-17T10:26:34.102Z,-1.70
2018-12-17T10:29:01.635Z,-1.60
2018-12-17T10:31:29.110Z,-1.60
2018-12-17T10:33:56.635Z,-1.40
2018-12-17T10:36:24.128Z,-1.10
2018-12-17T10:38:51.599Z,-0.90
2018-12-17T10:41:19.131Z,-1.00
2018-12-17T10:43:46.592Z,-0.80
2018-12-17T10:46:14.172Z,-0.60
2018-12-17T10:48:41.771Z,-0.70
2018-12-17T10:51:09.263Z,-0.70
2018-12-17T10:53:36.750Z,-0.70
2018-12-17T10:56:04.218Z,-0.70
2018-12-17T10:58:31.663Z,-0.90
2018-12-17T11:01:05.077Z,-1.10
2018-12-17T11:03:52.274Z,-1.20
2018-12-17T11:06:21.953Z,-1.20
2018-12-17T11:08:50.115Z,-1.30
2018-12-17T11:11:17.817Z,-1.30
2018-12-17T11:13:45.308Z,-1.00
2018-12-17T11:16:13.006Z,-0.80
2018-12-17T11:18:40.629Z,-1.00
2018-12-17T11:21:08.079Z,-1.10
2018-12-17T11:23:35.521Z,-1.20
2018-12-17T11:26:03.040Z,-1.20
2018-12-17T11:28:31.007Z,-1.20
2018-12-17T11:30:58.598Z,-1.20
2018-12-17T11:33:26.079Z,-1.10
2018-12-17T11:35:53.548Z,-0.80
2018-12-17T11:38:23.214Z,-0.80
2018-12-17T11:40:50.729Z,-1.00
2018-12-17T11:43:18.264Z,-0.90
2018-12-17T11:45:45.847Z,-0.70
2018-12-17T11:48:13.441Z,-0.60
2018-12-17T11:50:40.943Z,-0.60
2018-12-17T11:53:08.375Z,-0.70
2018-12-17T11:55:35.842Z,-0.80
2018-12-17T11:58:10.599Z,-1.00
2018-12-17T12:00:39.949Z,-1.10
2018-12-17T12:03:07.456Z,-1.20
2018-12-17T12:05:35.052Z,-1.20
2018-12-17T12:08:02.642Z,-0.90
2018-12-17T12:10:30.219Z,-0.80
2018-12-17T12:12:57.731Z,-0.80
2018-12-17T12:15:25.331Z,-0.70
2018-12-17T12:17:52.821Z,-0.60
2018-12-17T12:20:20.319Z,-0.50
2018-12-17T12:22:47.775Z,-0.50
2018-12-17T12:25:15.286Z,-0.60
2018-12-17T12:27:42.726Z,-0.50
2018-12-17T12:30:11.067Z,-0.70
2018-12-17T12:32:38.679Z,-0.70
2018-12-17T12:35:07.711Z,-0.70
2018-12-17T12:37:35.230Z,-0.80
2018-12-17T12:40:03.343Z,-0.90
2018-12-17T12:42:30.827Z,-0.80
2018-12-17T12:44:58.327Z,-0.70
2018-12-17T12:47:25.794Z,-0.60
2018-12-17T12:49:53.275Z,-0.60
2018-12-17T12:52:20.847Z,-0.70
2018-12-17T12:54:48.338Z,-0.60
2018-12-17T12:57:16.004Z,-0.70
2018-12-17T12:59:43.559Z,-0.70
2018-12-17T13:02:11.011Z,-0.70
2018-12-17T13:04:38.479Z,-0.70
2018-12-17T13:07:05.926Z,-0.70
2018-12-17T13:09:33.634Z,-0.70
2018-12-17T13:12:01.107Z,-0.70
2018-12-17T13:14:28.558Z,-0.70
2018-12-17T13:16:56.039Z,-0.70
2018-12-17T13:19:23.585Z,-0.80
2018-12-17T13:21:51.007Z,-0.90
2018-12-17T13:24:18.516Z,-0.90
2018-12-17T13:26:45.975Z,-0.80
2018-12-17T13:29:13.466Z,-0.70
2018-12-17T13:31:40.929Z,-0.70
2018-12-17T13:34:08.414Z,-0.80
2018-12-17T13:36:35.951Z,-0.90
2018-12-17T13:39:05.750Z,-1.20
2018-12-17T13:41:33.267Z,-1.30
2018-12-17T13:44:00.693Z,-1.30
2018-12-17T13:46:28.165Z,-1.40
2018-12-17T13:48:55.836Z,-1.60
2018-12-17T13:51:29.046Z,-1.70
2018-12-17T13:53:59.232Z,-1.70
2018-12-17T13:56:27.611Z,-1.70
2018-12-17T13:58:56.434Z,-1.70
2018-12-17T14:01:24.063Z,-1.60
2018-12-17T14:03:51.537Z,-1.50
2018-12-17T14:06:18.999Z,-1.40
2018-12-17T14:08:46.734Z,-1.50
2018-12-17T14:11:14.210Z,-1.60
2018-12-17T14:13:41.646Z,-1.70
2018-12-17T14:16:14.588Z,-1.80
2018-12-17T14:18:49.374Z,-1.80
2018-12-17T14:21:22.702Z,-1.70
2018-12-17T14:23:50.281Z,-1.70
2018-12-17T14:26:17.738Z,-1.80
2018-12-17T14:28:45.317Z,-1.80
2018-12-17T14:31:12.935Z,-1.80
2018-12-17T14:33:40.377Z,-1.80
2018-12-17T14:36:08.111Z,-1.70
2018-12-17T14:38:37.117Z,-1.70
2018-12-17T14:41:04.955Z,-1.70
2018-12-17T14:43:33.036Z,-1.70
2018-12-17T14:46:00.623Z,-1.70
2018-12-17T14:48:28.051Z,-1.90
2018-12-17T14:50:55.655Z,-2.00
2018-12-17T14:53:23.220Z,-1.80
2018-12-17T14:55:50.735Z,-1.60
2018-12-17T14:58:18.170Z,-1.60
2018-12-17T15:00:45.621Z,-1.60
2018-12-17T15:03:13.168Z,-1.70
2018-12-17T15:05:40.743Z,-1.90
2018-12-17T15:08:08.210Z,-2.00
2018-12-17T15:10:35.670Z,-2.10
2018-12-17T15:13:03.358Z,-2.10
2018-12-17T15:15:30.847Z,-2.10
2018-12-17T15:17:58.414Z,-2.00
2018-12-17T15:20:25.854Z,-1.80
2018-12-17T15:22:53.341Z,-1.80
2018-12-17T15:25:20.853Z,-1.90
2018-12-17T15:27:48.363Z,-1.90
2018-12-17T15:30:15.920Z,-1.80
2018-12-17T15:32:43.669Z,-1.90
2018-12-17T15:35:11.176Z,-2.00
2018-12-17T15:37:38.602Z,-2.00
2018-12-17T15:40:06.343Z,-1.70
2018-12-17T15:42:40.636Z,-1.60
2018-12-17T15:45:04.270Z,-1.50
2018-12-17T15:47:31.773Z,-1.50
2018-12-17T15:49:59.429Z,-1.40
2018-12-17T15:52:26.887Z,-1.40
2018-12-17T15:54:54.915Z,-1.50
2018-12-17T15:57:29.238Z,-1.60
2018-12-17T15:59:56.819Z,-1.80
2018-12-17T16:02:24.292Z,-2.00
2018-12-17T16:04:51.827Z,-2.10
2018-12-17T16:07:19.347Z,-2.20
2018-12-17T16:09:46.827Z,-2.20
2018-12-17T16:12:14.306Z,-2.20
2018-12-17T16:14:41.790Z,-2.20
2018-12-17T16:17:09.257Z,-2.30
2018-12-17T16:19:36.766Z,-2.20
2018-12-17T16:22:04.219Z,-2.20
2018-12-17T16:24:31.671Z,-2.20
2018-12-17T16:26:59.348Z,-2.20
2018-12-17T16:29:26.907Z,-2.00
2018-12-17T16:31:57.428Z,-2.00
2018-12-17T16:34:23.833Z,-1.90
2018-12-17T16:36:51.624Z,-1.70
2018-12-17T16:39:19.103Z,-1.50
2018-12-17T16:41:46.602Z,-1.40
2018-12-17T16:44:14.042Z,-1.60
2018-12-17T16:46:41.516Z,-1.80
2018-12-17T16:49:09.006Z,-1.90
2018-12-17T16:51:36.446Z,-2.00
2018-12-17T16:54:03.940Z,-1.90
2018-12-17T16:56:31.582Z,-2.00
2018-12-17T16:58:59.078Z,-2.10
2018-12-17T17:01:26.567Z,-2.10
2018-12-17T17:03:54.002Z,-2.10
2018-12-17T17:06:21.485Z,-2.10
2018-12-17T17:08:48.971Z,-2.10
2018-12-17T17:11:16.530Z,-1.90
2018-12-17T17:13:43.977Z,-1.70
2018-12-17T17:16:11.543Z,-1.70
2018-12-17T17:18:39.011Z,-1.80
2018-12-17T17:21:06.494Z,-1.90
2018-12-17T17:23:34.016Z,-1.90
2018-12-17T17:26:01.507Z,-1.70
2018-12-17T17:28:28.946Z,-1.50
2018-12-17T17:30:56.507Z,-1.50
2018-12-17T17:33:23.966Z,-1.60
2018-12-17T17:35:51.513Z,-1.90
2018-12-17T17:38:19.017Z,-2.00
2018-12-17T17:40:47.028Z,-2.00
2018-12-17T17:43:14.479Z,-1.90
2018-12-17T17:45:42.021Z,-1.90
2018-12-17T17:48:09.592Z,-1.80
2018-12-17T17:50:37.090Z,-1.90
2018-12-17T17:53:04.588Z,-1.80
2018-12-17T17:55:32.547Z,-1.80
2018-12-17T17:58:00.142Z,-1.70
2018-12-17T18:00:27.592Z,-1.70
2018-12-17T18:02:55.028Z,-1.80
2018-12-17T18:05:22.527Z,-1.60
2018-12-17T18:07:50.115Z,-1.50
2018-12-17T18:10:17.659Z,-1.60
2018-12-17T18:12:45.101Z,-1.70
2018-12-17T18:15:12.558Z,-1.90
2018-12-17T18:17:40.021Z,-2.00
2018-12-17T18:20:07.852Z,-2.00
2018-12-17T18:22:35.297Z,-2.10
2018-12-17T18:25:03.239Z,-1.90
2018-12-17T18:27:30.702Z,-1.60
2018-12-17T18:29:58.151Z,-1.60
2018-12-17T18:32:26.159Z,-1.60
2018-12-17T18:34:53.996Z,-1.80
2018-12-17T18:37:21.469Z,-1.90
2018-12-17T18:39:48.986Z,-1.80
2018-12-17T18:42:16.586Z,-1.80
2018-12-17T18:44:44.045Z,-1.70
2018-12-17T18:47:11.535Z,-1.60
2018-12-17T18:49:39.248Z,-1.60
2018-12-17T18:52:06.752Z,-1.60
2018-12-17T18:54:34.244Z,-1.50
2018-12-17T18:57:01.727Z,-1.50
2018-12-17T18:59:29.347Z,-1.50
2018-12-17T19:01:56.795Z,-1.50
2018-12-17T19:04:24.296Z,-1.50
2018-12-17T19:06:51.771Z,-1.50
2018-12-17T19:09:19.237Z,-1.60
2018-12-17T19:11:46.727Z,-1.50
2018-12-17T19:14:14.271Z,-1.40
2018-12-17T19:16:41.727Z,-1.30
2018-12-17T19:19:09.185Z,-1.30
2018-12-17T19:21:36.843Z,-1.30
2018-12-17T19:24:04.363Z,-1.50
2018-12-17T19:26:31.797Z,-1.50
2018-12-17T19:28:59.243Z,-1.50
2018-12-17T19:31:26.737Z,-1.70
2018-12-17T19:33:54.189Z,-1.90
2018-12-17T19:36:21.707Z,-1.80
2018-12-17T19:38:49.187Z,-1.80
2018-12-17T19:41:16.705Z,-1.80
2018-12-17T19:43:44.260Z,-1.70
2018-12-17T19:46:11.690Z,-1.60
2018-12-17T19:48:39.118Z,-1.70
2018-12-17T19:51:06.642Z,-1.80
2018-12-17T19:53:34.079Z,-1.80
2018-12-17T19:56:01.681Z,-1.90
2018-12-17T19:58:29.124Z,-1.90
2018-12-17T20:00:56.785Z,-1.80
2018-12-17T20:03:24.278Z,-1.80
2018-12-17T20:05:51.761Z,-1.60
2018-12-17T20:08:19.194Z,-1.70
2018-12-17T20:10:46.687Z,-1.70
2018-12-17T20:13:14.240Z,-1.60
2018-12-17T20:15:41.743Z,-1.50
2018-12-17T20:18:09.321Z,-1.40
2018-12-17T20:20:36.762Z,-1.40
2018-12-17T20:23:04.231Z,-1.50
2018-12-17T20:25:31.731Z,-1.50
2018-12-17T20:27:59.195Z,-1.40
2018-12-17T20:30:26.648Z,-1.20
2018-12-17T20:32:54.350Z,-1.20
2018-12-17T20:35:21.844Z,-1.40
2018-12-17T20:37:49.316Z,-1.70
2018-12-17T20:40:16.792Z,-1.70
2018-12-17T20:42:44.228Z,-1.80
2018-12-17T20:45:11.710Z,-1.80
2018-12-17T20:47:39.165Z,-1.90
2018-12-17T20:50:07.604Z,-1.90
2018-12-17T20:52:35.077Z,-1.90
2018-12-17T20:55:03.047Z,-1.90
2018-12-17T20:57:30.689Z,-1.90
2018-12-17T20:59:58.155Z,-1.90
2018-12-17T21:02:25.633Z,-1.90
2018-12-17T21:04:53.195Z,-1.70
2018-12-17T21:07:20.760Z,-1.70
2018-12-17T21:09:48.207Z,-1.80
2018-12-17T21:12:15.634Z,-1.90
2018-12-17T21:14:43.108Z,-2.00
2018-12-17T21:17:10.655Z,-2.10
2018-12-17T21:19:38.102Z,-2.10
2018-12-17T21:22:09.356Z,-2.10
2018-12-17T21:24:36.803Z,-2.20
2018-12-17T21:27:04.915Z,-2.10
2018-12-17T21:29:32.566Z,-2.10
2018-12-17T21:32:00.395Z,-2.10
2018-12-17T21:34:27.843Z,-2.20
2018-12-17T21:36:55.475Z,-2.30
2018-12-17T21:39:23.068Z,-2.30
2018-12-17T21:41:50.705Z,-2.30
2018-12-17T21:44:18.171Z,-2.20
2018-12-17T21:46:45.652Z,-2.10
2018-12-17T21:49:13.153Z,-2.00
2018-12-17T21:51:40.642Z,-1.80
2018-12-17T21:54:08.116Z,-1.60
2018-12-17T21:56:35.692Z,-1.50
2018-12-17T21:59:03.277Z,-1.60
2018-12-17T22:01:30.776Z,-1.70
2018-12-17T22:03:58.218Z,-1.90
2018-12-17T22:06:25.658Z,-1.80
2018-12-17T22:08:53.128Z,-1.70
2018-12-17T22:11:20.678Z,-1.60
2018-12-17T22:13:48.153Z,-1.60
2018-12-17T22:16:15.570Z,-1.80
2018-12-17T22:18:43.046Z,-1.90
2018-12-17T22:21:10.519Z,-2.00
2018-12-17T22:23:38.110Z,-2.10
2018-12-17T22:26:05.630Z,-2.20
2018-12-17T22:28:33.082Z,-2.20
2018-12-17T22:31:00.537Z,-2.20
2018-12-17T22:33:28.004Z,-2.20
2018-12-17T22:35:55.525Z,-2.20
2018-12-17T22:38:22.958Z,-2.10
2018-12-17T22:40:50.418Z,-2.00
2018-12-17T22:43:17.891Z,-1.90
2018-12-17T22:45:45.343Z,-2.00
2018-12-17T22:48:12.817Z,-2.10
2018-12-17T22:50:40.271Z,-2.20
2018-12-17T22:53:07.707Z,-2.30
2018-12-17T22:55:35.202Z,-2.30
2018-12-17T22:58:02.754Z,-2.20
2018-12-17T23:00:30.346Z,-2.10
2018-12-17T23:02:58.421Z,-2.00
2018-12-17T23:05:26.220Z,-1.90
2018-12-17T23:07:53.663Z,-2.10
2018-12-17T23:10:37.414Z,-2.20
2018-12-17T23:13:16.539Z,-2.10
2018-12-17T23:15:55.553Z,-2.00
2018-12-17T23:18:22.034Z,-1.90
2018-12-17T23:20:49.633Z,-2.00
2018-12-17T23:23:17.232Z,-2.20
2018-12-17T23:25:44.710Z,-2.30
2018-12-17T23:28:12.298Z,-2.30
2018-12-17T23:30:39.931Z,-2.30
2018-12-17T23:33:07.529Z,-2.30
2018-12-17T23:35:35.210Z,-2.30
2018-12-17T23:38:02.667Z,-2.00
2018-12-17T23:40:30.146Z,-1.90
2018-12-17T23:42:57.738Z,-2.10
2018-12-17T23:45:25.195Z,-2.30
2018-12-17T23:47:52.855Z,-2.30
2018-12-17T23:50:20.352Z,-2.30
2018-12-17T23:52:47.859Z,-2.30
2018-12-17T23:55:15.311Z,-2.30
2018-12-17T23:57:42.923Z,-2.30
